Terminal Aerodrome Forecast
Issued by NWS St Louis, MO

Home | Current Version | Previous Version | Text Only | Print | Product List | Glossary On
Versions: 1 2 3 4 5 6 7 8 9 10 11 12 13 14 15 16 17 18 19 20 21
768
FTUS43 KLSX 300520
TAFCOU
TAF
KCOU 300520Z 3006/0106 04009KT P6SM -SHRA VCTS OVC003CB
     FM300900 05011KT 6SM -SHRA VCTS OVC003CB
     FM301500 12012KT 5SM -SHRA VCTS OVC010CB
     FM301900 18014G21KT P6SM VCSH BKN040
     FM010000 22013G24KT P6SM BKN040
     FM010200 21011KT P6SM BKN060=

USA.gov is the U.S. government's official web portal to all federal, state and local government web resources and services.